Time;durP1;ratioP1;P1;durP2;ratioP2;P2;SDS_P1;SDS_P2;PMS_P1;PMS_P2;Temp;Humidity;BMP_temperature;BMP_pressure;BME280_temperature;BME280_humidity;BME280_pressure;Samples;Min_cycle;Max_cycle;Signal;HPM_P1;HPM_P2
2020/12/07 00:01:53;;;;;;;82.03;26.27;;;;;;;;;;5016673;28;20299;-53
2020/12/07 00:04:19;;;;;;;339.48;33.45;;;;;;;;;;5017433;28;20191;-53
2020/12/07 00:06:45;;;;;;;78.00;26.75;;;;;;;;;;5017389;28;20172;-54
2020/12/07 00:09:11;;;;;;;66.67;24.30;;;;;;;;;;5017382;28;20174;-53
2020/12/07 00:11:37;;;;;;;241.63;31.33;;;;;;;;;;5017298;28;20421;-53
2020/12/07 00:14:03;;;;;;;56.97;23.50;;;;;;;;;;5016181;28;20592;-53
2020/12/07 00:16:29;;;;;;;84.73;23.60;;;;;;;;;;5017364;28;20718;-53
2020/12/07 00:18:55;;;;;;;80.13;22.77;;;;;;;;;;5017151;28;20406;-53
2020/12/07 00:21:21;;;;;;;77.67;24.00;;;;;;;;;;5017139;28;20461;-53
2020/12/07 00:23:47;;;;;;;64.27;22.50;;;;;;;;;;5016966;28;20418;-53
2020/12/07 00:26:13;;;;;;;50.20;23.02;;;;;;;;;;5017197;28;20404;-54
2020/12/07 00:28:39;;;;;;;49.67;21.10;;;;;;;;;;5017151;28;20172;-53
2020/12/07 00:31:05;;;;;;;76.97;22.75;;;;;;;;;;5017128;28;20399;-53
2020/12/07 00:33:32;;;;;;;54.15;21.10;;;;;;;;;;5015786;28;20198;-54
2020/12/07 00:35:58;;;;;;;50.22;22.75;;;;;;;;;;5017220;28;20225;-54
2020/12/07 00:38:24;;;;;;;56.00;23.10;;;;;;;;;;5017227;28;20180;-53
2020/12/07 00:40:50;;;;;;;48.13;21.43;;;;;;;;;;5016783;28;20992;-53
2020/12/07 00:43:16;;;;;;;65.75;23.60;;;;;;;;;;5016820;28;20395;-53
2020/12/07 00:45:42;;;;;;;55.38;24.05;;;;;;;;;;5016994;28;20199;-53
2020/12/07 00:48:08;;;;;;;45.67;21.90;;;;;;;;;;5017108;28;20206;-54
2020/12/07 00:50:34;;;;;;;52.08;22.85;;;;;;;;;;5016801;28;20401;-53
2020/12/07 00:53:00;;;;;;;46.13;21.43;;;;;;;;;;5016859;28;20172;-54
2020/12/07 00:55:26;;;;;;;48.53;22.50;;;;;;;;;;5016716;28;20457;-53
2020/12/07 00:57:52;;;;;;;43.78;20.23;;;;;;;;;;5017166;28;20442;-54
2020/12/07 01:00:19;;;;;;;45.63;21.60;;;;;;;;;;5016689;28;20203;-53
2020/12/07 01:02:45;;;;;;;38.80;20.05;;;;;;;;;;5015456;28;20422;-54
2020/12/07 01:05:11;;;;;;;43.97;21.00;;;;;;;;;;5013272;28;20660;-54
2020/12/07 01:07:36;;;;;;;43.93;21.97;;;;;;;;;;5013849;28;20399;-53
2020/12/07 01:10:04;;;;;;;128.23;25.53;;;;;;;;;;5013726;28;20461;-54
2020/12/07 01:12:30;;;;;;;41.22;19.92;;;;;;;;;;5012686;28;20434;-53
2020/12/07 01:14:56;;;;;;;42.67;19.40;;;;;;;;;;5013659;28;20180;-54
2020/12/07 01:17:21;;;;;;;52.53;20.40;;;;;;;;;;5013528;28;20914;-53
2020/12/07 01:19:47;;;;;;;39.83;19.97;;;;;;;;;;5013629;28;20438;-54
2020/12/07 01:22:13;;;;;;;42.17;20.30;;;;;;;;;;5013043;28;20951;-54
2020/12/07 01:24:39;;;;;;;43.40;19.40;;;;;;;;;;5013385;28;20419;-53
2020/12/07 01:27:05;;;;;;;37.53;19.23;;;;;;;;;;5013338;28;20398;-53
2020/12/07 01:29:31;;;;;;;39.50;21.37;;;;;;;;;;5013464;28;20487;-53
2020/12/07 01:31:57;;;;;;;35.87;19.17;;;;;;;;;;5013277;28;20402;-54
2020/12/07 01:34:23;;;;;;;44.53;18.90;;;;;;;;;;5012269;28;20468;-53
2020/12/07 01:36:49;;;;;;;35.93;19.17;;;;;;;;;;5013433;28;20881;-53
2020/12/07 01:39:15;;;;;;;36.20;18.10;;;;;;;;;;5013136;28;20468;-54
2020/12/07 01:41:41;;;;;;;31.53;18.67;;;;;;;;;;5013540;28;20454;-53
2020/12/07 01:44:07;;;;;;;39.47;20.10;;;;;;;;;;5013116;28;20919;-53
2020/12/07 01:46:35;;;;;;;34.80;18.95;;;;;;;;;;5013558;28;20410;-53
2020/12/07 01:49:01;;;;;;;28.98;17.10;;;;;;;;;;5013090;28;20636;-53
2020/12/07 01:51:27;;;;;;;32.72;17.95;;;;;;;;;;5013073;28;20183;-54
2020/12/07 01:53:53;;;;;;;30.67;17.20;;;;;;;;;;5012513;28;20195;-53
2020/12/07 01:56:26;;;;;;;31.93;16.30;;;;;;;;;;5013043;28;20199;-53
2020/12/07 01:58:52;;;;;;;28.15;14.80;;;;;;;;;;5012804;28;20411;-53
2020/12/07 02:01:18;;;;;;;31.40;17.07;;;;;;;;;;5012403;28;20203;-54
2020/12/07 02:03:44;;;;;;;34.63;16.87;;;;;;;;;;5010942;28;20447;-53
2020/12/07 02:06:10;;;;;;;26.03;16.00;;;;;;;;;;5012147;28;20451;-53
2020/12/07 02:08:36;;;;;;;30.00;16.60;;;;;;;;;;5012659;28;20403;-54
2020/12/07 02:11:02;;;;;;;26.73;15.80;;;;;;;;;;5012326;28;20410;-53
2020/12/07 02:13:28;;;;;;;26.30;15.90;;;;;;;;;;5012280;28;20412;-54
2020/12/07 02:15:54;;;;;;;25.23;14.98;;;;;;;;;;5012211;28;20195;-54
2020/12/07 02:18:20;;;;;;;26.20;14.50;;;;;;;;;;5012491;28;20180;-53
2020/12/07 02:20:47;;;;;;;23.33;14.25;;;;;;;;;;5012166;28;20523;-54
2020/12/07 02:23:13;;;;;;;25.67;16.35;;;;;;;;;;5012126;28;20168;-53
2020/12/07 02:25:39;;;;;;;24.95;15.10;;;;;;;;;;5012150;28;20219;-53
2020/12/07 02:28:06;;;;;;;23.95;12.75;;;;;;;;;;5012361;28;20160;-54
2020/12/07 02:30:32;;;;;;;25.88;14.27;;;;;;;;;;5012144;28;20581;-53
2020/12/07 02:32:58;;;;;;;29.25;15.05;;;;;;;;;;5011072;28;20183;-54
2020/12/07 02:35:23;;;;;;;27.20;16.33;;;;;;;;;;5012014;28;20574;-53
2020/12/07 02:37:49;;;;;;;26.23;16.43;;;;;;;;;;5011992;28;21065;-53
2020/12/07 02:40:16;;;;;;;25.60;14.67;;;;;;;;;;5011976;28;20398;-53
2020/12/07 02:42:42;;;;;;;26.30;15.65;;;;;;;;;;5011711;28;20396;-54
2020/12/07 02:45:12;;;;;;;30.38;16.08;;;;;;;;;;5011925;28;20195;-53
2020/12/07 02:47:39;;;;;;;26.30;15.55;;;;;;;;;;5011815;28;20175;-53
2020/12/07 02:50:06;;;;;;;28.17;16.70;;;;;;;;;;5011891;28;20210;-53
2020/12/07 02:52:32;;;;;;;30.17;17.08;;;;;;;;;;5011507;28;20175;-53
2020/12/07 02:54:59;;;;;;;27.45;16.85;;;;;;;;;;5011836;28;20279;-53
2020/12/07 02:57:26;;;;;;;27.80;17.42;;;;;;;;;;5011994;28;20190;-53
2020/12/07 02:59:52;;;;;;;31.02;18.05;;;;;;;;;;5011746;28;20201;-52
2020/12/07 03:02:18;;;;;;;29.60;17.15;;;;;;;;;;5010567;28;20274;-52
2020/12/07 03:04:44;;;;;;;23.42;15.18;;;;;;;;;;5011355;28;20271;-51
2020/12/07 03:07:11;;;;;;;36.45;17.08;;;;;;;;;;5011578;28;20640;-52
2020/12/07 03:09:37;;;;;;;29.95;18.40;;;;;;;;;;5011496;28;20259;-52
2020/12/07 03:12:03;;;;;;;26.38;16.45;;;;;;;;;;5011392;28;20175;-52
2020/12/07 03:14:30;;;;;;;28.50;17.50;;;;;;;;;;5011352;28;20203;-51
2020/12/07 03:16:56;;;;;;;35.88;16.75;;;;;;;;;;5011474;28;20176;-51
2020/12/07 03:19:22;;;;;;;28.02;16.42;;;;;;;;;;5011354;28;20251;-51
2020/12/07 03:21:48;;;;;;;28.98;18.25;;;;;;;;;;5011281;28;20354;-51
2020/12/07 03:24:14;;;;;;;25.57;17.23;;;;;;;;;;5011095;28;20774;-51
2020/12/07 03:26:40;;;;;;;30.57;19.00;;;;;;;;;;5011383;28;20465;-51
2020/12/07 03:29:06;;;;;;;28.10;17.13;;;;;;;;;;5010898;28;20401;-51
2020/12/07 03:31:37;;;;;;;29.07;18.23;;;;;;;;;;5010788;28;20595;-52
2020/12/07 03:34:03;;;;;;;26.15;16.08;;;;;;;;;;5009897;28;20458;-54
2020/12/07 03:36:29;;;;;;;27.73;16.77;;;;;;;;;;5011469;28;20222;-51
2020/12/07 03:38:56;;;;;;;24.20;16.83;;;;;;;;;;5011504;28;20168;-52
2020/12/07 03:41:22;;;;;;;27.35;16.60;;;;;;;;;;5011147;28;20515;-52
2020/12/07 03:43:48;;;;;;;28.37;17.60;;;;;;;;;;5010991;28;20570;-52
2020/12/07 03:46:14;;;;;;;26.00;16.00;;;;;;;;;;5010985;28;20399;-52
2020/12/07 03:48:40;;;;;;;26.58;16.80;;;;;;;;;;5011125;28;20407;-52
2020/12/07 03:51:06;;;;;;;25.10;17.65;;;;;;;;;;5010916;28;20249;-51
2020/12/07 03:53:35;;;;;;;24.93;15.50;;;;;;;;;;5010885;28;20260;-52
2020/12/07 03:56:02;;;;;;;24.58;15.30;;;;;;;;;;5010928;28;20397;-52
2020/12/07 03:58:28;;;;;;;26.17;16.95;;;;;;;;;;5010956;28;20171;-51
2020/12/07 04:00:55;;;;;;;27.65;16.98;;;;;;;;;;5010150;28;20193;-53
2020/12/07 04:03:21;;;;;;;28.52;16.77;;;;;;;;;;5010459;28;20255;-52
2020/12/07 04:05:52;;;;;;;26.40;16.17;;;;;;;;;;5010982;28;20191;-51
2020/12/07 04:08:18;;;;;;;29.30;18.52;;;;;;;;;;5010922;28;20172;-51
2020/12/07 04:10:44;;;;;;;25.27;18.00;;;;;;;;;;5010790;28;20187;-52
2020/12/07 04:13:11;;;;;;;27.67;17.00;;;;;;;;;;5010536;28;20409;-52
2020/12/07 04:15:37;;;;;;;26.17;17.58;;;;;;;;;;5010593;28;20465;-52
2020/12/07 04:18:03;;;;;;;30.07;18.27;;;;;;;;;;5010597;28;20260;-51
2020/12/07 04:20:29;;;;;;;26.77;17.30;;;;;;;;;;5010639;28;20445;-51
2020/12/07 04:22:55;;;;;;;28.05;17.23;;;;;;;;;;5010624;28;20782;-51
2020/12/07 04:25:23;;;;;;;27.55;17.13;;;;;;;;;;5010660;28;20239;-52
2020/12/07 04:27:49;;;;;;;31.88;18.55;;;;;;;;;;5010541;28;20537;-51
2020/12/07 04:30:15;;;;;;;30.42;19.05;;;;;;;;;;5010535;28;20187;-52
2020/12/07 04:32:41;;;;;;;25.63;17.23;;;;;;;;;;5009528;28;20648;-52
2020/12/07 04:35:07;;;;;;;32.67;18.93;;;;;;;;;;5010325;28;20446;-52
2020/12/07 04:37:33;;;;;;;27.73;18.20;;;;;;;;;;5010732;28;20399;-52
2020/12/07 04:39:59;;;;;;;25.30;16.98;;;;;;;;;;5012627;28;20433;-52
2020/12/07 04:42:26;;;;;;;30.83;18.15;;;;;;;;;;5013976;28;20207;-54
2020/12/07 04:44:52;;;;;;;25.88;16.25;;;;;;;;;;5013949;28;20223;-52
2020/12/07 04:47:18;;;;;;;29.95;18.77;;;;;;;;;;5014225;28;20233;-52
2020/12/07 04:49:45;;;;;;;28.73;18.58;;;;;;;;;;5014098;28;20222;-53
2020/12/07 04:52:11;;;;;;;29.00;17.63;;;;;;;;;;5013824;28;20224;-52
2020/12/07 04:54:38;;;;;;;30.98;18.67;;;;;;;;;;5013885;28;20198;-52
2020/12/07 04:57:04;;;;;;;31.48;19.88;;;;;;;;;;5013929;28;20172;-53
2020/12/07 04:59:32;;;;;;;28.75;19.33;;;;;;;;;;5013772;28;20536;-51
2020/12/07 05:01:58;;;;;;;31.80;19.10;;;;;;;;;;5013868;28;20209;-52
2020/12/07 05:04:24;;;;;;;27.20;18.03;;;;;;;;;;5013761;28;20188;-52
2020/12/07 05:07:07;;;;;;;27.07;17.57;;;;;;;;;;5013758;28;20406;-51
2020/12/07 05:09:34;;;;;;;30.60;17.35;;;;;;;;;;5013712;28;20427;-52
2020/12/07 05:12:04;;;;;;;26.67;17.98;;;;;;;;;;5012633;28;20178;-52
2020/12/07 05:14:31;;;;;;;27.92;18.08;;;;;;;;;;5013623;28;20192;-52
2020/12/07 05:16:57;;;;;;;31.70;18.50;;;;;;;;;;5013581;28;20182;-52
2020/12/07 05:19:23;;;;;;;27.10;17.70;;;;;;;;;;5013601;28;20166;-53
2020/12/07 05:21:50;;;;;;;26.55;17.23;;;;;;;;;;5013298;28;20537;-52
2020/12/07 05:24:17;;;;;;;27.13;17.08;;;;;;;;;;5013282;28;20179;-52
2020/12/07 05:26:44;;;;;;;25.63;16.70;;;;;;;;;;5013385;28;20164;-53
2020/12/07 05:29:18;;;;;;;32.05;18.40;;;;;;;;;;5013536;28;20181;-52
2020/12/07 05:31:44;;;;;;;26.08;18.23;;;;;;;;;;5013316;28;20223;-52
2020/12/07 05:34:11;;;;;;;31.67;19.48;;;;;;;;;;5013021;28;20218;-52
2020/12/07 05:36:37;;;;;;;37.05;21.85;;;;;;;;;;5013397;28;20172;-53
2020/12/07 05:39:04;;;;;;;29.70;20.00;;;;;;;;;;5013152;28;20180;-51
2020/12/07 05:41:30;;;;;;;36.75;22.20;;;;;;;;;;5012434;28;20253;-52
2020/12/07 05:43:57;;;;;;;34.20;18.85;;;;;;;;;;5012824;28;20220;-52
2020/12/07 05:46:27;;;;;;;33.78;21.38;;;;;;;;;;5013130;28;20171;-53
2020/12/07 05:48:53;;;;;;;36.22;23.23;;;;;;;;;;5013037;28;20170;-52
2020/12/07 05:51:22;;;;;;;38.88;25.85;;;;;;;;;;5012455;28;20173;-51
2020/12/07 05:53:49;;;;;;;41.47;24.02;;;;;;;;;;5012662;28;20238;-51
2020/12/07 05:56:15;;;;;;;40.13;24.23;;;;;;;;;;5012991;28;20171;-51
2020/12/07 05:58:50;;;;;;;45.45;25.75;;;;;;;;;;5013124;28;20507;-51
2020/12/07 06:01:17;;;;;;;46.30;25.15;;;;;;;;;;5012865;28;20238;-51
2020/12/07 06:03:44;;;;;;;41.88;26.20;;;;;;;;;;5012622;28;20278;-52
2020/12/07 06:06:10;;;;;;;43.60;25.15;;;;;;;;;;5012920;28;20659;-51
2020/12/07 06:08:37;;;;;;;43.97;24.07;;;;;;;;;;5012735;28;20164;-51
2020/12/07 06:11:05;;;;;;;43.92;26.25;;;;;;;;;;5011799;28;20429;-52
2020/12/07 06:13:33;;;;;;;39.55;24.08;;;;;;;;;;5012349;28;20204;-52
2020/12/07 06:16:02;;;;;;;41.53;23.45;;;;;;;;;;5012549;28;20665;-53
2020/12/07 06:18:29;;;;;;;37.35;23.83;;;;;;;;;;5012602;28;20168;-52
2020/12/07 06:21:16;;;;;;;40.00;24.13;;;;;;;;;;5012213;28;20256;-52
2020/12/07 06:23:42;;;;;;;38.40;23.80;;;;;;;;;;5012033;28;20197;-51
2020/12/07 06:26:09;;;;;;;39.72;23.08;;;;;;;;;;5012259;28;20168;-52
2020/12/07 06:28:39;;;;;;;42.30;25.10;;;;;;;;;;5012234;28;20640;-52
2020/12/07 06:31:09;;;;;;;42.88;24.60;;;;;;;;;;5013844;28;20255;-51
2020/12/07 06:33:39;;;;;;;37.80;23.10;;;;;;;;;;5011720;28;20238;-52
2020/12/07 06:36:05;;;;;;;40.63;23.73;;;;;;;;;;5012035;28;20190;-53
2020/12/07 06:38:43;;;;;;;33.85;21.80;;;;;;;;;;5012152;28;20179;-53
2020/12/07 06:41:09;;;;;;;42.03;26.13;;;;;;;;;;5009691;28;20205;-52
2020/12/07 06:43:35;;;;;;;40.30;21.73;;;;;;;;;;5010095;28;20234;-52
2020/12/07 06:46:01;;;;;;;44.43;23.07;;;;;;;;;;5010893;28;20468;-52
2020/12/07 06:48:28;;;;;;;37.37;22.03;;;;;;;;;;5011913;28;20430;-53
2020/12/07 06:50:56;;;;;;;40.97;22.90;;;;;;;;;;5011936;28;20434;-52
2020/12/07 06:55:57;;;;;;;37.28;22.48;;;;;;;;;;5011867;28;20709;-52
2020/12/07 06:58:33;;;;;;;40.23;23.87;;;;;;;;;;5011643;28;20179;-53
2020/12/07 07:01:13;;;;;;;33.25;21.75;;;;;;;;;;5011544;28;20457;-54
2020/12/07 07:03:49;;;;;;;35.90;21.73;;;;;;;;;;5010475;28;20267;-53
2020/12/07 07:06:18;;;;;;;38.00;22.98;;;;;;;;;;5011589;28;20172;-52
2020/12/07 07:08:45;;;;;;;36.55;23.17;;;;;;;;;;5011514;28;20202;-52
2020/12/07 07:11:11;;;;;;;40.85;25.13;;;;;;;;;;5010619;28;20213;-51
2020/12/07 07:13:37;;;;;;;37.37;23.20;;;;;;;;;;5011380;28;20222;-52
2020/12/07 07:16:05;;;;;;;40.95;22.17;;;;;;;;;;5011671;28;20407;-51
2020/12/07 07:18:31;;;;;;;44.33;23.88;;;;;;;;;;5011383;28;20230;-52
2020/12/07 07:21:01;;;;;;;37.90;23.50;;;;;;;;;;5011369;28;20650;-52
2020/12/07 07:23:27;;;;;;;39.22;22.55;;;;;;;;;;5011072;28;20410;-52
2020/12/07 07:26:00;;;;;;;38.40;22.92;;;;;;;;;;5011639;28;20176;-51
2020/12/07 07:28:26;;;;;;;34.00;21.13;;;;;;;;;;5011301;28;20536;-55
2020/12/07 07:30:52;;;;;;;36.97;22.33;;;;;;;;;;5011289;28;20170;-53
2020/12/07 07:33:18;;;;;;;31.40;19.57;;;;;;;;;;5010980;28;20917;-53
2020/12/07 07:35:44;;;;;;;33.10;21.20;;;;;;;;;;5011167;28;20437;-53
2020/12/07 07:38:10;;;;;;;33.78;19.85;;;;;;;;;;5011412;28;20446;-52
2020/12/07 07:40:37;;;;;;;30.57;18.93;;;;;;;;;;5010988;28;20194;-52
2020/12/07 07:43:04;;;;;;;34.20;20.45;;;;;;;;;;5010299;28;20590;-52
2020/12/07 07:45:33;;;;;;;34.00;20.02;;;;;;;;;;5011023;28;20274;-52
2020/12/07 08:15:31;;;;;;;30.70;19.13;;;;;;;;;;5014063;28;20707;-52
2020/12/07 08:17:59;;;;;;;29.45;17.98;;;;;;;;;;5014975;28;20557;-54
2020/12/07 08:20:31;;;;;;;37.45;19.27;;;;;;;;;;5014585;28;20666;-51
2020/12/07 08:22:58;;;;;;;31.15;19.15;;;;;;;;;;5014503;28;20179;-53
2020/12/07 08:25:43;;;;;;;39.38;20.80;;;;;;;;;;5014489;28;20215;-52
2020/12/07 08:28:16;;;;;;;34.40;20.98;;;;;;;;;;5014663;28;20233;-52
2020/12/07 08:30:56;;;;;;;31.25;18.10;;;;;;;;;;5014514;28;20504;-52
2020/12/07 08:33:22;;;;;;;29.67;19.98;;;;;;;;;;5014014;28;20178;-52
2020/12/07 08:35:48;;;;;;;27.60;17.93;;;;;;;;;;5014490;28;20554;-52
2020/12/07 08:38:23;;;;;;;25.40;16.55;;;;;;;;;;5014172;28;20401;-55
2020/12/07 08:40:49;;;;;;;22.48;15.73;;;;;;;;;;5014167;28;20190;-53
2020/12/07 08:43:15;;;;;;;29.57;17.20;;;;;;;;;;5013090;28;20183;-53
2020/12/07 08:45:44;;;;;;;26.67;16.42;;;;;;;;;;5014189;28;20510;-51
2020/12/07 08:48:10;;;;;;;25.67;15.20;;;;;;;;;;5014097;28;20179;-53
2020/12/07 08:50:36;;;;;;;22.83;13.77;;;;;;;;;;5014110;28;20174;-52
2020/12/07 08:53:02;;;;;;;25.20;14.75;;;;;;;;;;5014134;28;20417;-52
2020/12/07 08:55:28;;;;;;;22.65;13.95;;;;;;;;;;5013872;28;20264;-51
2020/12/07 08:57:54;;;;;;;25.60;14.43;;;;;;;;;;5013055;28;20699;-54
2020/12/07 09:00:20;;;;;;;25.63;15.10;;;;;;;;;;5013645;28;20398;-53
2020/12/07 09:02:46;;;;;;;26.50;14.57;;;;;;;;;;5013699;28;20401;-54
2020/12/07 09:05:12;;;;;;;22.03;13.60;;;;;;;;;;5013558;28;20494;-53
2020/12/07 09:07:38;;;;;;;23.80;14.20;;;;;;;;;;5013893;28;20403;-54
2020/12/07 09:10:04;;;;;;;25.73;16.63;;;;;;;;;;5013684;28;20410;-54
2020/12/07 09:12:30;;;;;;;24.30;15.23;;;;;;;;;;5012778;28;20427;-53
2020/12/07 09:14:56;;;;;;;28.33;14.83;;;;;;;;;;5013780;28;20431;-54
2020/12/07 09:17:22;;;;;;;26.73;15.50;;;;;;;;;;5013611;28;20882;-54
2020/12/07 09:19:48;;;;;;;24.97;13.23;;;;;;;;;;5013738;28;20894;-54
2020/12/07 09:22:14;;;;;;;21.07;14.90;;;;;;;;;;5013312;28;20885;-54
2020/12/07 09:24:40;;;;;;;23.45;13.98;;;;;;;;;;5013257;28;20857;-53
2020/12/07 09:27:06;;;;;;;26.43;15.83;;;;;;;;;;5014305;28;20261;-53
2020/12/07 09:29:32;;;;;;;21.20;14.33;;;;;;;;;;5013514;28;20417;-53
2020/12/07 09:31:58;;;;;;;24.30;14.90;;;;;;;;;;5013303;28;20403;-53
2020/12/07 09:34:24;;;;;;;27.70;15.83;;;;;;;;;;5013106;28;20442;-54
2020/12/07 09:36:50;;;;;;;25.73;14.40;;;;;;;;;;5013218;28;20494;-54
2020/12/07 09:39:15;;;;;;;23.80;15.00;;;;;;;;;;5013271;28;20890;-52
2020/12/07 09:41:41;;;;;;;22.13;14.00;;;;;;;;;;5013134;28;20449;-52
2020/12/07 09:44:07;;;;;;;22.90;16.20;;;;;;;;;;5011443;28;20508;-53
2020/12/07 09:46:33;;;;;;;26.17;15.33;;;;;;;;;;5013222;28;20427;-53
2020/12/07 09:48:59;;;;;;;30.10;17.00;;;;;;;;;;5012905;28;20405;-52
2020/12/07 09:51:25;;;;;;;28.70;15.60;;;;;;;;;;5012980;28;20214;-53
2020/12/07 09:53:51;;;;;;;29.97;15.43;;;;;;;;;;5012628;28;20429;-53
2020/12/07 09:56:17;;;;;;;29.40;16.93;;;;;;;;;;5013189;28;20486;-53
2020/12/07 09:58:43;;;;;;;27.53;17.30;;;;;;;;;;5012770;28;20405;-53
2020/12/07 10:01:09;;;;;;;30.50;19.60;;;;;;;;;;5012765;28;20991;-53
2020/12/07 10:03:35;;;;;;;32.13;20.20;;;;;;;;;;5012393;28;21143;-52
2020/12/07 10:06:01;;;;;;;35.13;19.63;;;;;;;;;;5012758;28;20754;-53
2020/12/07 10:08:27;;;;;;;38.50;20.80;;;;;;;;;;5013136;28;20413;-52
2020/12/07 10:10:53;;;;;;;41.83;20.83;;;;;;;;;;5012441;28;20411;-53
2020/12/07 10:13:19;;;;;;;32.37;19.97;;;;;;;;;;5011378;28;20434;-52
2020/12/07 10:15:45;;;;;;;37.67;21.10;;;;;;;;;;5011961;28;20469;-53
2020/12/07 10:18:11;;;;;;;34.20;19.20;;;;;;;;;;5012471;28;20442;-53
2020/12/07 10:20:36;;;;;;;36.80;20.13;;;;;;;;;;5011017;28;20778;-52
2020/12/07 10:23:02;;;;;;;27.77;18.90;;;;;;;;;;5011665;28;20460;-52
2020/12/07 10:25:28;;;;;;;32.80;19.90;;;;;;;;;;5012372;28;20419;-52
2020/12/07 10:27:54;;;;;;;27.20;18.60;;;;;;;;;;5012066;28;20434;-52
2020/12/07 10:30:20;;;;;;;26.27;17.42;;;;;;;;;;5012152;28;20407;-52
2020/12/07 10:32:46;;;;;;;29.50;17.60;;;;;;;;;;5011858;28;20184;-53
2020/12/07 10:35:12;;;;;;;34.33;18.60;;;;;;;;;;5011998;28;20441;-53
2020/12/07 10:37:38;;;;;;;32.53;18.10;;;;;;;;;;5011885;28;20924;-52
2020/12/07 10:40:04;;;;;;;28.30;19.03;;;;;;;;;;5012111;28;20987;-52
2020/12/07 10:42:30;;;;;;;32.83;17.37;;;;;;;;;;5010834;28;20476;-52
2020/12/07 10:44:56;;;;;;;32.40;17.40;;;;;;;;;;5011924;28;20434;-53
2020/12/07 10:47:22;;;;;;;30.37;18.80;;;;;;;;;;5011900;28;20810;-52
2020/12/07 10:49:48;;;;;;;31.10;18.77;;;;;;;;;;5011809;28;20421;-52
2020/12/07 10:52:14;;;;;;;31.55;20.30;;;;;;;;;;5011563;28;20434;-52
2020/12/07 10:54:40;;;;;;;28.60;17.77;;;;;;;;;;5011604;28;20196;-53
2020/12/07 10:57:06;;;;;;;28.35;16.88;;;;;;;;;;5011960;28;20418;-53
2020/12/07 10:59:32;;;;;;;28.90;17.43;;;;;;;;;;5011627;28;20179;-52
2020/12/07 11:01:58;;;;;;;27.02;16.85;;;;;;;;;;5011415;28;20449;-52
2020/12/07 11:04:24;;;;;;;26.17;17.05;;;;;;;;;;5011495;28;20184;-52
2020/12/07 11:06:52;;;;;;;30.43;17.53;;;;;;;;;;5011469;28;20692;-53
2020/12/07 11:09:23;;;;;;;26.02;16.20;;;;;;;;;;5010799;28;20429;-53
2020/12/07 11:11:52;;;;;;;26.77;16.95;;;;;;;;;;5011356;28;20180;-53
2020/12/07 11:14:18;;;;;;;23.00;14.85;;;;;;;;;;5011159;28;20281;-53
2020/12/07 11:16:44;;;;;;;25.87;16.43;;;;;;;;;;5011401;28;20695;-53
2020/12/07 11:19:10;;;;;;;26.73;16.83;;;;;;;;;;5011519;28;20437;-53
2020/12/07 11:21:36;;;;;;;28.40;16.57;;;;;;;;;;5011211;28;20446;-53
2020/12/07 11:24:02;;;;;;;27.83;16.10;;;;;;;;;;5011116;28;20454;-53
2020/12/07 11:26:28;;;;;;;26.23;15.50;;;;;;;;;;5011324;28;20394;-53
2020/12/07 11:28:54;;;;;;;23.87;16.03;;;;;;;;;;5011152;28;20240;-53
2020/12/07 11:31:21;;;;;;;27.67;15.90;;;;;;;;;;5011519;28;20418;-53
2020/12/07 11:33:47;;;;;;;21.90;15.32;;;;;;;;;;5010936;28;20442;-53
2020/12/07 11:36:14;;;;;;;24.87;16.07;;;;;;;;;;5011411;28;20178;-53
2020/12/07 11:39:08;;;;;;;17.10;11.52;;;;;;;;;;5011235;28;20411;-53
2020/12/07 11:41:48;;;;;;;23.55;14.20;;;;;;;;;;5011259;28;20203;-52
2020/12/07 11:44:16;;;;;;;22.67;13.00;;;;;;;;;;5010957;28;20178;-53
2020/12/07 11:46:50;;;;;;;18.15;12.25;;;;;;;;;;5011104;28;20666;-53
2020/12/07 11:49:16;;;;;;;17.83;11.88;;;;;;;;;;5010661;28;20244;-53
2020/12/07 11:51:42;;;;;;;15.50;10.63;;;;;;;;;;5010716;28;20610;-54
2020/12/07 11:54:08;;;;;;;18.50;12.23;;;;;;;;;;5011056;28;20283;-52
2020/12/07 11:56:38;;;;;;;17.93;12.57;;;;;;;;;;5010918;28;20413;-53
2020/12/07 11:59:04;;;;;;;17.38;10.73;;;;;;;;;;5011289;28;20835;-53
2020/12/07 12:01:33;;;;;;;16.88;11.68;;;;;;;;;;5010635;28;20199;-53
2020/12/07 12:04:00;;;;;;;20.80;11.75;;;;;;;;;;5010896;28;20605;-53
2020/12/07 12:06:31;;;;;;;22.83;11.30;;;;;;;;;;5010729;28;20676;-53
2020/12/07 12:08:57;;;;;;;15.35;9.52;;;;;;;;;;5010982;28;20172;-53
2020/12/07 12:11:27;;;;;;;14.82;10.57;;;;;;;;;;5010276;28;20196;-53
2020/12/07 12:13:53;;;;;;;14.82;9.85;;;;;;;;;;5010287;28;20703;-53
2020/12/07 12:16:19;;;;;;;17.20;9.40;;;;;;;;;;5010692;28;20218;-53
2020/12/07 12:18:45;;;;;;;13.43;8.17;;;;;;;;;;5010472;28;20462;-53
2020/12/07 12:21:11;;;;;;;11.00;7.77;;;;;;;;;;5010475;28;20452;-53
2020/12/07 12:23:37;;;;;;;11.03;7.83;;;;;;;;;;5010304;28;20408;-53
2020/12/07 12:26:03;;;;;;;11.43;8.47;;;;;;;;;;5010601;28;20872;-52
2020/12/07 12:28:29;;;;;;;12.70;8.40;;;;;;;;;;5010575;28;20395;-53
2020/12/07 12:30:56;;;;;;;11.20;7.70;;;;;;;;;;5010541;28;20176;-54
2020/12/07 12:33:22;;;;;;;15.48;7.97;;;;;;;;;;5010012;28;20410;-53
2020/12/07 12:35:48;;;;;;;13.77;7.60;;;;;;;;;;5010403;28;20244;-53
2020/12/07 12:38:14;;;;;;;14.10;7.90;;;;;;;;;;5010416;28;20402;-53
2020/12/07 12:40:40;;;;;;;13.97;7.87;;;;;;;;;;5009370;28;20519;-53
2020/12/07 12:43:06;;;;;;;11.30;7.40;;;;;;;;;;5010334;28;20410;-53
2020/12/07 12:45:32;;;;;;;11.77;8.10;;;;;;;;;;5010312;28;20434;-53
2020/12/07 12:47:58;;;;;;;11.63;8.00;;;;;;;;;;5010182;28;20406;-53
2020/12/07 12:50:24;;;;;;;8.37;7.13;;;;;;;;;;5010167;28;20413;-53
2020/12/07 12:52:51;;;;;;;12.83;7.17;;;;;;;;;;5010010;28;20407;-53
2020/12/07 12:55:17;;;;;;;10.38;6.80;;;;;;;;;;5010283;28;20427;-53
2020/12/07 12:57:44;;;;;;;9.87;6.90;;;;;;;;;;5010293;28;20261;-53
2020/12/07 13:00:10;;;;;;;12.85;7.05;;;;;;;;;;5010556;28;20414;-53
2020/12/07 13:02:36;;;;;;;14.60;6.77;;;;;;;;;;5013467;28;20563;-53
2020/12/07 13:05:03;;;;;;;13.07;7.30;;;;;;;;;;5013564;28;20462;-53
2020/12/07 13:07:28;;;;;;;11.45;7.05;;;;;;;;;;5013833;28;20412;-53
2020/12/07 13:09:54;;;;;;;12.80;7.90;;;;;;;;;;5012871;28;20180;-54
2020/12/07 13:12:20;;;;;;;11.80;7.90;;;;;;;;;;5013370;28;20406;-54
2020/12/07 13:14:46;;;;;;;10.70;7.67;;;;;;;;;;5013497;28;20426;-53
2020/12/07 13:17:15;;;;;;;18.20;8.90;;;;;;;;;;5013397;28;20428;-53
2020/12/07 13:19:41;;;;;;;12.43;7.88;;;;;;;;;;5013575;28;20489;-53
2020/12/07 13:22:59;;;;;;;11.02;7.70;;;;;;;;;;5013159;28;20686;-53
2020/12/07 13:25:03;;;;;;;11.48;7.80;;;;;;;;;;5007834;28;20206;-54
2020/12/07 13:27:52;;;;;;;15.73;8.98;;;;;;;;;;5013448;28;20201;-53
2020/12/07 13:30:20;;;;;;;14.70;8.95;;;;;;;;;;5013625;28;20318;-53
2020/12/07 13:32:46;;;;;;;13.90;8.90;;;;;;;;;;5013505;28;20183;-53
2020/12/07 13:35:12;;;;;;;16.83;10.10;;;;;;;;;;5013555;28;20227;-53
2020/12/07 13:37:38;;;;;;;16.77;10.40;;;;;;;;;;5013360;28;20576;-54
2020/12/07 13:40:05;;;;;;;15.95;9.48;;;;;;;;;;5011816;28;20469;-53
2020/12/07 13:42:31;;;;;;;25.50;10.00;;;;;;;;;;5012789;28;20229;-54
2020/12/07 13:44:57;;;;;;;15.63;9.37;;;;;;;;;;5013153;28;20184;-53
2020/12/07 13:47:23;;;;;;;15.50;9.83;;;;;;;;;;5012615;28;20435;-53
2020/12/07 13:49:49;;;;;;;15.50;9.90;;;;;;;;;;5012897;28;20505;-53
2020/12/07 13:52:15;;;;;;;12.83;9.10;;;;;;;;;;5012717;28;20668;-53
2020/12/07 13:54:42;;;;;;;16.70;9.87;;;;;;;;;;5012450;28;20430;-53
2020/12/07 13:57:07;;;;;;;9.90;8.38;;;;;;;;;;5013037;28;20472;-53
2020/12/07 13:59:33;;;;;;;12.10;9.10;;;;;;;;;;5012702;28;20647;-53
2020/12/07 14:02:00;;;;;;;10.43;8.17;;;;;;;;;;5012422;28;20477;-53
2020/12/07 14:04:51;;;;;;;12.02;9.20;;;;;;;;;;5012371;28;20411;-53
2020/12/07 14:07:17;;;;;;;12.18;8.25;;;;;;;;;;5012626;28;20218;-53
2020/12/07 14:09:43;;;;;;;16.20;10.20;;;;;;;;;;5012425;28;20218;-52
2020/12/07 14:12:09;;;;;;;13.77;9.30;;;;;;;;;;5011695;28;20544;-52
2020/12/07 14:14:35;;;;;;;11.73;9.00;;;;;;;;;;5012867;28;20452;-53
2020/12/07 14:17:08;;;;;;;11.10;8.23;;;;;;;;;;5012309;28;20652;-52
2020/12/07 14:20:19;;;;;;;15.32;9.35;;;;;;;;;;5012401;28;20403;-53
2020/12/07 14:28:15;;;;;;;11.52;8.20;;;;;;;;;;5012110;28;20190;-53
2020/12/07 14:39:09;;;;;;;10.48;8.65;;;;;;;;;;5011226;28;20291;-54
2020/12/07 14:41:35;;;;;;;11.18;8.38;;;;;;;;;;5012015;28;20188;-54
2020/12/07 14:44:01;;;;;;;13.70;9.00;;;;;;;;;;5013355;28;20206;-53
2020/12/07 14:46:30;;;;;;;13.20;9.10;;;;;;;;;;5012012;28;20417;-53
2020/12/07 14:48:56;;;;;;;10.90;8.63;;;;;;;;;;5011849;28;20399;-54
2020/12/07 14:51:32;;;;;;;9.60;8.13;;;;;;;;;;5013039;28;20219;-53
2020/12/07 14:54:01;;;;;;;10.05;7.32;;;;;;;;;;5011101;28;20283;-53
2020/12/07 14:56:38;;;;;;;12.43;8.57;;;;;;;;;;5010979;28;20191;-53
2020/12/07 15:05:22;;;;;;;9.57;7.10;;;;;;;;;;5011619;28;20192;-54
2020/12/07 15:14:58;;;;;;;12.07;8.25;;;;;;;;;;5011511;28;20562;-54
2020/12/07 15:17:25;;;;;;;9.85;7.47;;;;;;;;;;5011390;28;20647;-53